sensor_id;sensor_type;location;lat;lon;timestamp;P1;durP1;ratioP1;P2;durP2;ratioP2
31734;SDS011;18313;48.518;9.124;2022-09-09T00:00:35;3.92;;;1.20;;
31734;SDS011;18313;48.518;9.124;2022-09-09T00:03:25;2.78;;;0.90;;
31734;SDS011;18313;48.518;9.124;2022-09-09T00:09:07;3.50;;;1.08;;
31734;SDS011;18313;48.518;9.124;2022-09-09T00:12:02;4.13;;;0.95;;
31734;SDS011;18313;48.518;9.124;2022-09-09T00:21:06;4.10;;;1.00;;
31734;SDS011;18313;48.518;9.124;2022-09-09T00:23:57;3.15;;;1.00;;
31734;SDS011;18313;48.518;9.124;2022-09-09T00:26:48;3.90;;;1.25;;
31734;SDS011;18313;48.518;9.124;2022-09-09T00:29:45;4.03;;;1.10;;
31734;SDS011;18313;48.518;9.124;2022-09-09T00:32:38;2.17;;;1.08;;
31734;SDS011;18313;48.518;9.124;2022-09-09T00:35:29;6.18;;;1.25;;
31734;SDS011;18313;48.518;9.124;2022-09-09T00:38:19;4.60;;;1.02;;
31734;SDS011;18313;48.518;9.124;2022-09-09T00:41:11;3.17;;;0.88;;
31734;SDS011;18313;48.518;9.124;2022-09-09T00:57:06;7.60;;;1.17;;
31734;SDS011;18313;48.518;9.124;2022-09-09T01:03:18;3.42;;;1.10;;
31734;SDS011;18313;48.518;9.124;2022-09-09T01:09:38;3.17;;;0.95;;
31734;SDS011;18313;48.518;9.124;2022-09-09T01:12:41;2.63;;;0.80;;
31734;SDS011;18313;48.518;9.124;2022-09-09T01:15:29;5.68;;;1.00;;
31734;SDS011;18313;48.518;9.124;2022-09-09T01:18:17;3.05;;;0.80;;
31734;SDS011;18313;48.518;9.124;2022-09-09T01:27:25;2.60;;;1.00;;
31734;SDS011;18313;48.518;9.124;2022-09-09T01:30:14;3.90;;;0.95;;
31734;SDS011;18313;48.518;9.124;2022-09-09T01:33:02;4.93;;;1.10;;
31734;SDS011;18313;48.518;9.124;2022-09-09T01:38:52;3.15;;;1.13;;
31734;SDS011;18313;48.518;9.124;2022-09-09T01:41:38;3.95;;;1.20;;
31734;SDS011;18313;48.518;9.124;2022-09-09T01:44:24;4.50;;;1.10;;
31734;SDS011;18313;48.518;9.124;2022-09-09T01:47:11;3.28;;;1.20;;
31734;SDS011;18313;48.518;9.124;2022-09-09T01:49:57;4.32;;;1.15;;
31734;SDS011;18313;48.518;9.124;2022-09-09T01:52:44;3.10;;;1.10;;
31734;SDS011;18313;48.518;9.124;2022-09-09T01:55:35;2.38;;;0.98;;
31734;SDS011;18313;48.518;9.124;2022-09-09T01:58:32;6.22;;;1.60;;
31734;SDS011;18313;48.518;9.124;2022-09-09T02:01:38;4.63;;;1.10;;
31734;SDS011;18313;48.518;9.124;2022-09-09T02:04:54;2.95;;;1.30;;
31734;SDS011;18313;48.518;9.124;2022-09-09T02:07:51;5.18;;;1.30;;
31734;SDS011;18313;48.518;9.124;2022-09-09T02:14:01;7.80;;;1.42;;
31734;SDS011;18313;48.518;9.124;2022-09-09T02:16:56;3.08;;;1.00;;
31734;SDS011;18313;48.518;9.124;2022-09-09T02:19:53;3.50;;;1.10;;
31734;SDS011;18313;48.518;9.124;2022-09-09T02:22:49;2.42;;;1.00;;
31734;SDS011;18313;48.518;9.124;2022-09-09T02:25:36;4.15;;;1.17;;
31734;SDS011;18313;48.518;9.124;2022-09-09T02:28:22;4.93;;;1.25;;
31734;SDS011;18313;48.518;9.124;2022-09-09T02:31:13;5.75;;;1.20;;
31734;SDS011;18313;48.518;9.124;2022-09-09T02:34:04;4.10;;;1.13;;
31734;SDS011;18313;48.518;9.124;2022-09-09T02:36:51;4.63;;;1.48;;
31734;SDS011;18313;48.518;9.124;2022-09-09T02:39:39;3.70;;;1.20;;
31734;SDS011;18313;48.518;9.124;2022-09-09T02:42:25;3.40;;;1.23;;
31734;SDS011;18313;48.518;9.124;2022-09-09T02:45:11;4.40;;;1.38;;
31734;SDS011;18313;48.518;9.124;2022-09-09T02:51:10;6.85;;;1.60;;
31734;SDS011;18313;48.518;9.124;2022-09-09T02:54:30;5.30;;;1.25;;
31734;SDS011;18313;48.518;9.124;2022-09-09T02:57:22;5.82;;;1.20;;
31734;SDS011;18313;48.518;9.124;2022-09-09T03:00:12;4.97;;;1.30;;
31734;SDS011;18313;48.518;9.124;2022-09-09T03:02:58;3.38;;;1.10;;
31734;SDS011;18313;48.518;9.124;2022-09-09T03:05:44;5.57;;;1.70;;
31734;SDS011;18313;48.518;9.124;2022-09-09T03:08:30;4.63;;;1.67;;
31734;SDS011;18313;48.518;9.124;2022-09-09T03:11:16;4.13;;;2.30;;
31734;SDS011;18313;48.518;9.124;2022-09-09T03:14:02;3.22;;;1.63;;
31734;SDS011;18313;48.518;9.124;2022-09-09T03:16:47;4.28;;;1.95;;
31734;SDS011;18313;48.518;9.124;2022-09-09T03:19:33;5.63;;;1.50;;
31734;SDS011;18313;48.518;9.124;2022-09-09T03:22:20;3.67;;;1.70;;
31734;SDS011;18313;48.518;9.124;2022-09-09T03:25:06;4.70;;;1.40;;
31734;SDS011;18313;48.518;9.124;2022-09-09T03:27:52;6.93;;;1.42;;
31734;SDS011;18313;48.518;9.124;2022-09-09T03:30:39;3.25;;;1.10;;
31734;SDS011;18313;48.518;9.124;2022-09-09T03:33:25;3.85;;;1.20;;
31734;SDS011;18313;48.518;9.124;2022-09-09T03:36:10;4.95;;;1.20;;
31734;SDS011;18313;48.518;9.124;2022-09-09T03:38:56;5.93;;;1.20;;
31734;SDS011;18313;48.518;9.124;2022-09-09T03:41:41;4.70;;;1.20;;
31734;SDS011;18313;48.518;9.124;2022-09-09T03:44:30;4.20;;;1.27;;
31734;SDS011;18313;48.518;9.124;2022-09-09T03:47:19;5.07;;;1.30;;
31734;SDS011;18313;48.518;9.124;2022-09-09T03:50:06;5.13;;;1.00;;
31734;SDS011;18313;48.518;9.124;2022-09-09T03:52:54;4.72;;;1.10;;
31734;SDS011;18313;48.518;9.124;2022-09-09T03:55:43;3.33;;;1.00;;
31734;SDS011;18313;48.518;9.124;2022-09-09T03:58:30;7.22;;;1.17;;
31734;SDS011;18313;48.518;9.124;2022-09-09T04:01:15;3.90;;;1.15;;
31734;SDS011;18313;48.518;9.124;2022-09-09T04:04:02;6.88;;;1.20;;
31734;SDS011;18313;48.518;9.124;2022-09-09T04:06:48;2.50;;;1.00;;
31734;SDS011;18313;48.518;9.124;2022-09-09T04:09:33;5.88;;;1.77;;
31734;SDS011;18313;48.518;9.124;2022-09-09T04:12:20;4.72;;;1.10;;
31734;SDS011;18313;48.518;9.124;2022-09-09T04:15:06;5.65;;;1.15;;
31734;SDS011;18313;48.518;9.124;2022-09-09T04:17:52;2.38;;;0.95;;
31734;SDS011;18313;48.518;9.124;2022-09-09T04:20:37;3.70;;;1.10;;
31734;SDS011;18313;48.518;9.124;2022-09-09T04:23:24;4.43;;;1.10;;
31734;SDS011;18313;48.518;9.124;2022-09-09T04:26:12;4.78;;;1.27;;
31734;SDS011;18313;48.518;9.124;2022-09-09T04:28:57;3.38;;;1.38;;
31734;SDS011;18313;48.518;9.124;2022-09-09T04:31:43;4.18;;;1.00;;
31734;SDS011;18313;48.518;9.124;2022-09-09T04:34:29;2.95;;;1.10;;
31734;SDS011;18313;48.518;9.124;2022-09-09T04:37:16;4.43;;;1.30;;
31734;SDS011;18313;48.518;9.124;2022-09-09T04:40:01;4.60;;;1.10;;
31734;SDS011;18313;48.518;9.124;2022-09-09T04:42:47;4.72;;;1.20;;
31734;SDS011;18313;48.518;9.124;2022-09-09T04:45:34;3.45;;;1.27;;
31734;SDS011;18313;48.518;9.124;2022-09-09T04:48:20;5.63;;;1.10;;
31734;SDS011;18313;48.518;9.124;2022-09-09T04:51:08;3.58;;;1.05;;
31734;SDS011;18313;48.518;9.124;2022-09-09T04:53:54;4.13;;;1.10;;
31734;SDS011;18313;48.518;9.124;2022-09-09T04:56:40;2.58;;;1.08;;
31734;SDS011;18313;48.518;9.124;2022-09-09T04:59:27;4.43;;;1.17;;
31734;SDS011;18313;48.518;9.124;2022-09-09T05:02:12;6.88;;;1.30;;
31734;SDS011;18313;48.518;9.124;2022-09-09T05:04:58;4.55;;;1.10;;
31734;SDS011;18313;48.518;9.124;2022-09-09T05:07:43;5.35;;;1.20;;
31734;SDS011;18313;48.518;9.124;2022-09-09T05:10:29;3.25;;;1.10;;
31734;SDS011;18313;48.518;9.124;2022-09-09T05:13:15;4.55;;;1.45;;
31734;SDS011;18313;48.518;9.124;2022-09-09T05:16:00;5.55;;;1.35;;
31734;SDS011;18313;48.518;9.124;2022-09-09T05:18:46;3.20;;;1.00;;
31734;SDS011;18313;48.518;9.124;2022-09-09T05:21:32;4.75;;;1.20;;
31734;SDS011;18313;48.518;9.124;2022-09-09T05:24:17;5.60;;;1.40;;
31734;SDS011;18313;48.518;9.124;2022-09-09T05:27:03;2.58;;;1.20;;
31734;SDS011;18313;48.518;9.124;2022-09-09T05:29:50;2.90;;;1.10;;
31734;SDS011;18313;48.518;9.124;2022-09-09T05:32:36;3.35;;;0.90;;
31734;SDS011;18313;48.518;9.124;2022-09-09T05:35:21;4.10;;;1.00;;
31734;SDS011;18313;48.518;9.124;2022-09-09T05:38:07;4.50;;;1.17;;
31734;SDS011;18313;48.518;9.124;2022-09-09T05:40:53;3.60;;;1.00;;
31734;SDS011;18313;48.518;9.124;2022-09-09T05:43:39;3.63;;;1.10;;
31734;SDS011;18313;48.518;9.124;2022-09-09T05:46:24;4.45;;;1.00;;
31734;SDS011;18313;48.518;9.124;2022-09-09T05:49:10;6.97;;;1.30;;
31734;SDS011;18313;48.518;9.124;2022-09-09T05:51:56;3.50;;;1.10;;
31734;SDS011;18313;48.518;9.124;2022-09-09T05:54:41;3.35;;;1.10;;
31734;SDS011;18313;48.518;9.124;2022-09-09T05:57:28;3.95;;;1.00;;
31734;SDS011;18313;48.518;9.124;2022-09-09T06:00:13;3.75;;;1.30;;
31734;SDS011;18313;48.518;9.124;2022-09-09T06:02:59;4.75;;;1.10;;
31734;SDS011;18313;48.518;9.124;2022-09-09T06:05:45;3.65;;;1.13;;
31734;SDS011;18313;48.518;9.124;2022-09-09T06:08:31;3.15;;;1.10;;
31734;SDS011;18313;48.518;9.124;2022-09-09T06:11:18;6.40;;;1.30;;
31734;SDS011;18313;48.518;9.124;2022-09-09T06:14:08;3.05;;;1.10;;
31734;SDS011;18313;48.518;9.124;2022-09-09T06:16:54;4.22;;;1.45;;
31734;SDS011;18313;48.518;9.124;2022-09-09T06:19:39;7.32;;;1.40;;
31734;SDS011;18313;48.518;9.124;2022-09-09T06:22:25;5.53;;;1.75;;
31734;SDS011;18313;48.518;9.124;2022-09-09T06:25:10;3.30;;;1.20;;
31734;SDS011;18313;48.518;9.124;2022-09-09T06:27:57;4.28;;;1.30;;
31734;SDS011;18313;48.518;9.124;2022-09-09T06:30:43;6.13;;;1.38;;
31734;SDS011;18313;48.518;9.124;2022-09-09T06:33:36;3.13;;;0.95;;
31734;SDS011;18313;48.518;9.124;2022-09-09T06:36:30;2.92;;;0.90;;
31734;SDS011;18313;48.518;9.124;2022-09-09T06:39:17;4.95;;;1.25;;
31734;SDS011;18313;48.518;9.124;2022-09-09T06:42:02;4.15;;;1.00;;
31734;SDS011;18313;48.518;9.124;2022-09-09T06:44:48;6.55;;;1.52;;
31734;SDS011;18313;48.518;9.124;2022-09-09T06:47:34;3.35;;;1.00;;
31734;SDS011;18313;48.518;9.124;2022-09-09T06:50:19;2.97;;;1.08;;
31734;SDS011;18313;48.518;9.124;2022-09-09T06:53:05;3.72;;;0.90;;
31734;SDS011;18313;48.518;9.124;2022-09-09T06:55:50;4.57;;;1.33;;
31734;SDS011;18313;48.518;9.124;2022-09-09T06:58:39;4.03;;;1.42;;
31734;SDS011;18313;48.518;9.124;2022-09-09T07:04:18;4.30;;;1.02;;
31734;SDS011;18313;48.518;9.124;2022-09-09T07:07:04;6.30;;;1.15;;
31734;SDS011;18313;48.518;9.124;2022-09-09T07:09:49;4.78;;;1.08;;
31734;SDS011;18313;48.518;9.124;2022-09-09T07:12:35;2.97;;;0.90;;
31734;SDS011;18313;48.518;9.124;2022-09-09T07:15:21;4.53;;;1.20;;
31734;SDS011;18313;48.518;9.124;2022-09-09T07:18:07;3.50;;;1.13;;
31734;SDS011;18313;48.518;9.124;2022-09-09T07:20:55;3.88;;;0.95;;
31734;SDS011;18313;48.518;9.124;2022-09-09T07:23:42;4.85;;;1.25;;
31734;SDS011;18313;48.518;9.124;2022-09-09T07:26:29;3.33;;;1.00;;
31734;SDS011;18313;48.518;9.124;2022-09-09T07:29:15;2.58;;;1.00;;
31734;SDS011;18313;48.518;9.124;2022-09-09T07:32:05;4.00;;;1.10;;
31734;SDS011;18313;48.518;9.124;2022-09-09T07:34:50;5.20;;;1.25;;
31734;SDS011;18313;48.518;9.124;2022-09-09T07:37:37;5.18;;;1.48;;
31734;SDS011;18313;48.518;9.124;2022-09-09T07:40:22;6.47;;;1.30;;
31734;SDS011;18313;48.518;9.124;2022-09-09T07:43:08;4.85;;;1.30;;
31734;SDS011;18313;48.518;9.124;2022-09-09T07:45:59;5.80;;;1.52;;
31734;SDS011;18313;48.518;9.124;2022-09-09T07:48:49;9.10;;;1.40;;
31734;SDS011;18313;48.518;9.124;2022-09-09T07:51:37;5.30;;;1.45;;
31734;SDS011;18313;48.518;9.124;2022-09-09T07:54:24;3.63;;;1.10;;
31734;SDS011;18313;48.518;9.124;2022-09-09T07:57:09;5.88;;;1.30;;
31734;SDS011;18313;48.518;9.124;2022-09-09T07:59:54;3.97;;;1.10;;
31734;SDS011;18313;48.518;9.124;2022-09-09T08:02:41;3.53;;;1.15;;
31734;SDS011;18313;48.518;9.124;2022-09-09T08:05:26;6.15;;;1.20;;
31734;SDS011;18313;48.518;9.124;2022-09-09T08:08:12;5.18;;;1.25;;
31734;SDS011;18313;48.518;9.124;2022-09-09T08:11:16;4.32;;;1.30;;
31734;SDS011;18313;48.518;9.124;2022-09-09T08:14:02;3.65;;;1.20;;
31734;SDS011;18313;48.518;9.124;2022-09-09T08:16:48;3.80;;;1.27;;
31734;SDS011;18313;48.518;9.124;2022-09-09T08:19:34;5.00;;;1.10;;
31734;SDS011;18313;48.518;9.124;2022-09-09T08:22:20;4.53;;;1.08;;
31734;SDS011;18313;48.518;9.124;2022-09-09T08:25:07;4.25;;;1.15;;
31734;SDS011;18313;48.518;9.124;2022-09-09T08:27:53;4.93;;;1.20;;
31734;SDS011;18313;48.518;9.124;2022-09-09T08:30:38;5.35;;;1.00;;
31734;SDS011;18313;48.518;9.124;2022-09-09T08:33:24;6.47;;;1.40;;
31734;SDS011;18313;48.518;9.124;2022-09-09T08:36:10;4.70;;;1.10;;
31734;SDS011;18313;48.518;9.124;2022-09-09T08:38:57;5.30;;;1.02;;
31734;SDS011;18313;48.518;9.124;2022-09-09T08:41:47;4.70;;;1.08;;
31734;SDS011;18313;48.518;9.124;2022-09-09T08:44:50;4.50;;;1.10;;
31734;SDS011;18313;48.518;9.124;2022-09-09T08:47:46;6.15;;;0.90;;
31734;SDS011;18313;48.518;9.124;2022-09-09T08:51:01;4.13;;;1.10;;
31734;SDS011;18313;48.518;9.124;2022-09-09T08:53:51;3.40;;;0.80;;
31734;SDS011;18313;48.518;9.124;2022-09-09T08:56:43;4.75;;;1.10;;
31734;SDS011;18313;48.518;9.124;2022-09-09T08:59:29;5.05;;;0.90;;
31734;SDS011;18313;48.518;9.124;2022-09-09T09:05:56;6.28;;;0.90;;
31734;SDS011;18313;48.518;9.124;2022-09-09T09:09:37;3.67;;;0.98;;
31734;SDS011;18313;48.518;9.124;2022-09-09T09:12:35;6.05;;;1.20;;
31734;SDS011;18313;48.518;9.124;2022-09-09T09:15:27;4.07;;;0.90;;
31734;SDS011;18313;48.518;9.124;2022-09-09T09:21:12;7.65;;;1.20;;
31734;SDS011;18313;48.518;9.124;2022-09-09T09:30:18;4.38;;;0.90;;
31734;SDS011;18313;48.518;9.124;2022-09-09T09:36:12;6.38;;;0.93;;
31734;SDS011;18313;48.518;9.124;2022-09-09T09:39:01;3.33;;;0.70;;
31734;SDS011;18313;48.518;9.124;2022-09-09T09:42:10;4.68;;;1.00;;
31734;SDS011;18313;48.518;9.124;2022-09-09T09:45:14;3.65;;;0.70;;
31734;SDS011;18313;48.518;9.124;2022-09-09T09:48:19;6.18;;;0.88;;
31734;SDS011;18313;48.518;9.124;2022-09-09T09:51:07;3.80;;;1.00;;
31734;SDS011;18313;48.518;9.124;2022-09-09T09:54:27;4.35;;;0.90;;
31734;SDS011;18313;48.518;9.124;2022-09-09T09:57:15;4.85;;;0.82;;
31734;SDS011;18313;48.518;9.124;2022-09-09T10:02:56;5.60;;;0.98;;
31734;SDS011;18313;48.518;9.124;2022-09-09T10:05:47;5.72;;;0.95;;
31734;SDS011;18313;48.518;9.124;2022-09-09T10:08:33;10.20;;;1.10;;
31734;SDS011;18313;48.518;9.124;2022-09-09T10:14:30;4.90;;;0.93;;
31734;SDS011;18313;48.518;9.124;2022-09-09T10:20:32;4.85;;;0.93;;
31734;SDS011;18313;48.518;9.124;2022-09-09T10:23:46;5.70;;;0.90;;
31734;SDS011;18313;48.518;9.124;2022-09-09T10:33:08;4.25;;;0.80;;
31734;SDS011;18313;48.518;9.124;2022-09-09T10:38:47;4.70;;;0.80;;
31734;SDS011;18313;48.518;9.124;2022-09-09T10:57:33;4.55;;;0.60;;
31734;SDS011;18313;48.518;9.124;2022-09-09T11:00:24;4.05;;;1.13;;
31734;SDS011;18313;48.518;9.124;2022-09-09T11:03:26;6.45;;;1.10;;
31734;SDS011;18313;48.518;9.124;2022-09-09T11:06:21;3.30;;;0.60;;
31734;SDS011;18313;48.518;9.124;2022-09-09T11:09:17;3.30;;;0.68;;
31734;SDS011;18313;48.518;9.124;2022-09-09T11:12:06;3.28;;;0.70;;
31734;SDS011;18313;48.518;9.124;2022-09-09T11:14:59;3.72;;;0.77;;
31734;SDS011;18313;48.518;9.124;2022-09-09T11:17:52;2.05;;;0.70;;
31734;SDS011;18313;48.518;9.124;2022-09-09T11:20:41;4.70;;;0.82;;
31734;SDS011;18313;48.518;9.124;2022-09-09T11:23:39;6.60;;;1.42;;
31734;SDS011;18313;48.518;9.124;2022-09-09T11:26:35;4.35;;;0.70;;
31734;SDS011;18313;48.518;9.124;2022-09-09T11:38:25;2.22;;;0.55;;
31734;SDS011;18313;48.518;9.124;2022-09-09T11:41:20;1.10;;;0.55;;
31734;SDS011;18313;48.518;9.124;2022-09-09T11:44:15;4.10;;;0.40;;
31734;SDS011;18313;48.518;9.124;2022-09-09T11:47:14;2.45;;;0.50;;
31734;SDS011;18313;48.518;9.124;2022-09-09T11:59:33;2.55;;;0.60;;
31734;SDS011;18313;48.518;9.124;2022-09-09T12:05:09;3.40;;;0.80;;
31734;SDS011;18313;48.518;9.124;2022-09-09T12:07:57;2.28;;;0.68;;
31734;SDS011;18313;48.518;9.124;2022-09-09T12:10:52;2.40;;;0.50;;
31734;SDS011;18313;48.518;9.124;2022-09-09T12:13:40;2.83;;;0.60;;
31734;SDS011;18313;48.518;9.124;2022-09-09T12:16:38;3.85;;;0.60;;
31734;SDS011;18313;48.518;9.124;2022-09-09T12:19:24;3.67;;;0.60;;
31734;SDS011;18313;48.518;9.124;2022-09-09T12:22:17;3.10;;;0.60;;
31734;SDS011;18313;48.518;9.124;2022-09-09T12:28:56;3.90;;;0.60;;
31734;SDS011;18313;48.518;9.124;2022-09-09T12:32:07;3.72;;;0.65;;
31734;SDS011;18313;48.518;9.124;2022-09-09T12:34:59;4.60;;;0.75;;
31734;SDS011;18313;48.518;9.124;2022-09-09T12:37:56;7.47;;;1.35;;
31734;SDS011;18313;48.518;9.124;2022-09-09T12:40:52;4.47;;;0.90;;
31734;SDS011;18313;48.518;9.124;2022-09-09T12:43:41;3.80;;;0.68;;
31734;SDS011;18313;48.518;9.124;2022-09-09T12:46:30;3.38;;;0.80;;
31734;SDS011;18313;48.518;9.124;2022-09-09T12:49:35;3.90;;;0.80;;
31734;SDS011;18313;48.518;9.124;2022-09-09T12:52:42;2.92;;;0.65;;
31734;SDS011;18313;48.518;9.124;2022-09-09T12:55:30;2.30;;;0.50;;
31734;SDS011;18313;48.518;9.124;2022-09-09T12:58:18;2.00;;;0.40;;
31734;SDS011;18313;48.518;9.124;2022-09-09T13:01:05;3.20;;;0.60;;
31734;SDS011;18313;48.518;9.124;2022-09-09T13:03:50;3.20;;;0.63;;
31734;SDS011;18313;48.518;9.124;2022-09-09T13:06:37;1.73;;;0.40;;
31734;SDS011;18313;48.518;9.124;2022-09-09T13:09:23;3.63;;;0.50;;
31734;SDS011;18313;48.518;9.124;2022-09-09T13:12:11;3.35;;;0.60;;
31734;SDS011;18313;48.518;9.124;2022-09-09T13:14:59;4.60;;;0.73;;
31734;SDS011;18313;48.518;9.124;2022-09-09T13:17:53;3.33;;;0.70;;
31734;SDS011;18313;48.518;9.124;2022-09-09T13:23:32;5.03;;;0.80;;
31734;SDS011;18313;48.518;9.124;2022-09-09T13:26:24;6.30;;;0.68;;
31734;SDS011;18313;48.518;9.124;2022-09-09T13:29:17;7.32;;;1.10;;
31734;SDS011;18313;48.518;9.124;2022-09-09T13:32:15;4.00;;;0.60;;
31734;SDS011;18313;48.518;9.124;2022-09-09T13:35:02;3.00;;;0.63;;
31734;SDS011;18313;48.518;9.124;2022-09-09T13:37:47;5.18;;;0.63;;
31734;SDS011;18313;48.518;9.124;2022-09-09T13:40:33;6.28;;;0.80;;
31734;SDS011;18313;48.518;9.124;2022-09-09T13:43:20;1.70;;;0.80;;
31734;SDS011;18313;48.518;9.124;2022-09-09T13:49:22;2.20;;;0.50;;
31734;SDS011;18313;48.518;9.124;2022-09-09T13:54:55;3.42;;;0.70;;
31734;SDS011;18313;48.518;9.124;2022-09-09T13:57:52;2.28;;;0.80;;
31734;SDS011;18313;48.518;9.124;2022-09-09T14:00:40;3.13;;;0.60;;
31734;SDS011;18313;48.518;9.124;2022-09-09T14:03:25;2.35;;;0.50;;
31734;SDS011;18313;48.518;9.124;2022-09-09T14:06:11;3.85;;;0.80;;
31734;SDS011;18313;48.518;9.124;2022-09-09T14:08:56;2.28;;;0.40;;
31734;SDS011;18313;48.518;9.124;2022-09-09T14:11:42;3.40;;;0.70;;
31734;SDS011;18313;48.518;9.124;2022-09-09T14:14:29;3.10;;;0.55;;
31734;SDS011;18313;48.518;9.124;2022-09-09T14:17:14;4.72;;;0.60;;
31734;SDS011;18313;48.518;9.124;2022-09-09T14:20:00;6.13;;;0.60;;
31734;SDS011;18313;48.518;9.124;2022-09-09T14:22:45;2.85;;;1.13;;
31734;SDS011;18313;48.518;9.124;2022-09-09T14:25:31;3.05;;;0.50;;
31734;SDS011;18313;48.518;9.124;2022-09-09T14:28:16;3.90;;;0.70;;
31734;SDS011;18313;48.518;9.124;2022-09-09T14:31:09;1.67;;;0.40;;
31734;SDS011;18313;48.518;9.124;2022-09-09T14:33:55;4.95;;;0.80;;
31734;SDS011;18313;48.518;9.124;2022-09-09T14:36:40;1.73;;;0.43;;
31734;SDS011;18313;48.518;9.124;2022-09-09T14:39:26;4.03;;;0.68;;
31734;SDS011;18313;48.518;9.124;2022-09-09T14:42:12;3.28;;;0.73;;
31734;SDS011;18313;48.518;9.124;2022-09-09T14:44:58;1.20;;;0.40;;
31734;SDS011;18313;48.518;9.124;2022-09-09T14:47:44;2.40;;;0.60;;
31734;SDS011;18313;48.518;9.124;2022-09-09T14:50:29;6.07;;;0.60;;
31734;SDS011;18313;48.518;9.124;2022-09-09T14:53:16;2.97;;;0.80;;
31734;SDS011;18313;48.518;9.124;2022-09-09T14:56:09;3.05;;;0.65;;
31734;SDS011;18313;48.518;9.124;2022-09-09T14:58:59;5.00;;;0.80;;
31734;SDS011;18313;48.518;9.124;2022-09-09T15:01:47;2.45;;;0.52;;
31734;SDS011;18313;48.518;9.124;2022-09-09T15:04:33;2.63;;;0.43;;
31734;SDS011;18313;48.518;9.124;2022-09-09T15:07:18;1.98;;;0.52;;
31734;SDS011;18313;48.518;9.124;2022-09-09T15:10:04;2.78;;;0.60;;
31734;SDS011;18313;48.518;9.124;2022-09-09T15:12:50;3.40;;;0.60;;
31734;SDS011;18313;48.518;9.124;2022-09-09T15:15:35;5.15;;;0.80;;
31734;SDS011;18313;48.518;9.124;2022-09-09T15:18:21;1.60;;;0.40;;
31734;SDS011;18313;48.518;9.124;2022-09-09T15:21:06;2.85;;;0.60;;
31734;SDS011;18313;48.518;9.124;2022-09-09T15:23:52;6.15;;;0.77;;
31734;SDS011;18313;48.518;9.124;2022-09-09T15:26:38;3.90;;;0.68;;
31734;SDS011;18313;48.518;9.124;2022-09-09T15:29:24;2.67;;;0.57;;
31734;SDS011;18313;48.518;9.124;2022-09-09T15:32:10;2.13;;;0.50;;
31734;SDS011;18313;48.518;9.124;2022-09-09T15:34:55;4.03;;;0.95;;
31734;SDS011;18313;48.518;9.124;2022-09-09T15:37:41;3.33;;;0.50;;
31734;SDS011;18313;48.518;9.124;2022-09-09T15:40:26;4.55;;;0.88;;
31734;SDS011;18313;48.518;9.124;2022-09-09T15:43:12;3.90;;;0.65;;
31734;SDS011;18313;48.518;9.124;2022-09-09T15:45:59;3.50;;;0.65;;
31734;SDS011;18313;48.518;9.124;2022-09-09T15:49:10;6.18;;;0.73;;
31734;SDS011;18313;48.518;9.124;2022-09-09T15:51:58;2.42;;;0.60;;
31734;SDS011;18313;48.518;9.124;2022-09-09T15:54:46;2.10;;;0.40;;
31734;SDS011;18313;48.518;9.124;2022-09-09T15:57:32;3.17;;;0.68;;
31734;SDS011;18313;48.518;9.124;2022-09-09T16:00:17;3.20;;;0.45;;
31734;SDS011;18313;48.518;9.124;2022-09-09T16:03:03;1.52;;;0.30;;
31734;SDS011;18313;48.518;9.124;2022-09-09T16:05:50;1.60;;;0.35;;
31734;SDS011;18313;48.518;9.124;2022-09-09T16:08:37;1.75;;;0.50;;
31734;SDS011;18313;48.518;9.124;2022-09-09T16:11:25;3.15;;;0.50;;
31734;SDS011;18313;48.518;9.124;2022-09-09T16:14:19;2.22;;;0.50;;
31734;SDS011;18313;48.518;9.124;2022-09-09T16:17:06;4.38;;;0.50;;
31734;SDS011;18313;48.518;9.124;2022-09-09T16:19:51;4.13;;;1.00;;
31734;SDS011;18313;48.518;9.124;2022-09-09T16:22:38;1.80;;;0.35;;
31734;SDS011;18313;48.518;9.124;2022-09-09T16:25:23;2.22;;;0.50;;
31734;SDS011;18313;48.518;9.124;2022-09-09T16:28:09;3.00;;;0.50;;
31734;SDS011;18313;48.518;9.124;2022-09-09T16:30:54;4.10;;;0.80;;
31734;SDS011;18313;48.518;9.124;2022-09-09T16:33:40;2.28;;;0.40;;
31734;SDS011;18313;48.518;9.124;2022-09-09T16:36:27;2.28;;;0.40;;
31734;SDS011;18313;48.518;9.124;2022-09-09T16:39:19;2.90;;;0.50;;
31734;SDS011;18313;48.518;9.124;2022-09-09T16:42:05;2.17;;;0.50;;
31734;SDS011;18313;48.518;9.124;2022-09-09T16:44:50;2.15;;;0.40;;
31734;SDS011;18313;48.518;9.124;2022-09-09T16:47:36;2.00;;;0.50;;
31734;SDS011;18313;48.518;9.124;2022-09-09T16:50:21;2.90;;;0.52;;
31734;SDS011;18313;48.518;9.124;2022-09-09T16:53:07;3.05;;;0.45;;
31734;SDS011;18313;48.518;9.124;2022-09-09T16:55:53;3.05;;;0.40;;
31734;SDS011;18313;48.518;9.124;2022-09-09T16:58:39;2.42;;;0.50;;
31734;SDS011;18313;48.518;9.124;2022-09-09T17:01:25;3.28;;;0.98;;
31734;SDS011;18313;48.518;9.124;2022-09-09T17:04:13;1.83;;;0.32;;
31734;SDS011;18313;48.518;9.124;2022-09-09T17:07:05;3.15;;;0.60;;
31734;SDS011;18313;48.518;9.124;2022-09-09T17:09:51;3.58;;;0.55;;
31734;SDS011;18313;48.518;9.124;2022-09-09T17:12:38;4.22;;;0.57;;
31734;SDS011;18313;48.518;9.124;2022-09-09T17:15:26;1.88;;;0.30;;
31734;SDS011;18313;48.518;9.124;2022-09-09T17:18:12;3.40;;;0.60;;
31734;SDS011;18313;48.518;9.124;2022-09-09T17:21:02;3.00;;;1.00;;
31734;SDS011;18313;48.518;9.124;2022-09-09T17:23:52;3.30;;;0.50;;
31734;SDS011;18313;48.518;9.124;2022-09-09T17:26:37;4.38;;;0.60;;
31734;SDS011;18313;48.518;9.124;2022-09-09T17:29:23;2.92;;;0.60;;
31734;SDS011;18313;48.518;9.124;2022-09-09T17:32:09;4.60;;;0.65;;
31734;SDS011;18313;48.518;9.124;2022-09-09T17:34:55;1.55;;;0.50;;
31734;SDS011;18313;48.518;9.124;2022-09-09T17:37:40;3.42;;;0.60;;
31734;SDS011;18313;48.518;9.124;2022-09-09T17:40:26;1.98;;;0.60;;
31734;SDS011;18313;48.518;9.124;2022-09-09T17:43:12;4.00;;;1.00;;
31734;SDS011;18313;48.518;9.124;2022-09-09T17:46:05;3.30;;;0.70;;
31734;SDS011;18313;48.518;9.124;2022-09-09T17:48:52;3.00;;;0.70;;
31734;SDS011;18313;48.518;9.124;2022-09-09T17:51:41;2.60;;;0.73;;
31734;SDS011;18313;48.518;9.124;2022-09-09T17:54:27;2.58;;;0.50;;
31734;SDS011;18313;48.518;9.124;2022-09-09T17:57:12;2.88;;;0.60;;
31734;SDS011;18313;48.518;9.124;2022-09-09T17:59:58;11.20;;;0.95;;
31734;SDS011;18313;48.518;9.124;2022-09-09T18:02:43;2.22;;;0.60;;
31734;SDS011;18313;48.518;9.124;2022-09-09T18:05:29;2.22;;;0.45;;
31734;SDS011;18313;48.518;9.124;2022-09-09T18:08:15;2.30;;;0.47;;
31734;SDS011;18313;48.518;9.124;2022-09-09T18:11:01;1.60;;;0.40;;
31734;SDS011;18313;48.518;9.124;2022-09-09T18:13:58;2.15;;;0.50;;
31734;SDS011;18313;48.518;9.124;2022-09-09T18:16:45;3.08;;;0.50;;
31734;SDS011;18313;48.518;9.124;2022-09-09T18:19:31;2.17;;;0.40;;
31734;SDS011;18313;48.518;9.124;2022-09-09T18:22:17;3.25;;;0.57;;
31734;SDS011;18313;48.518;9.124;2022-09-09T18:25:03;3.83;;;0.55;;
31734;SDS011;18313;48.518;9.124;2022-09-09T18:27:49;3.03;;;0.50;;
31734;SDS011;18313;48.518;9.124;2022-09-09T18:30:40;1.38;;;0.50;;
31734;SDS011;18313;48.518;9.124;2022-09-09T18:33:25;4.85;;;0.60;;
31734;SDS011;18313;48.518;9.124;2022-09-09T18:36:12;2.92;;;0.60;;
31734;SDS011;18313;48.518;9.124;2022-09-09T18:39:00;3.05;;;0.60;;
31734;SDS011;18313;48.518;9.124;2022-09-09T18:41:48;1.58;;;0.50;;
31734;SDS011;18313;48.518;9.124;2022-09-09T18:44:36;2.55;;;0.50;;
31734;SDS011;18313;48.518;9.124;2022-09-09T18:47:22;3.03;;;0.43;;
31734;SDS011;18313;48.518;9.124;2022-09-09T18:50:08;1.80;;;0.50;;
31734;SDS011;18313;48.518;9.124;2022-09-09T18:52:55;3.20;;;0.40;;
31734;SDS011;18313;48.518;9.124;2022-09-09T18:55:40;1.85;;;0.50;;
31734;SDS011;18313;48.518;9.124;2022-09-09T18:58:26;3.05;;;0.60;;
31734;SDS011;18313;48.518;9.124;2022-09-09T19:01:13;1.48;;;0.40;;
31734;SDS011;18313;48.518;9.124;2022-09-09T19:04:00;4.78;;;0.60;;
31734;SDS011;18313;48.518;9.124;2022-09-09T19:06:46;3.03;;;0.55;;
31734;SDS011;18313;48.518;9.124;2022-09-09T19:09:33;1.67;;;0.35;;